American Spirit — WDC4277 — position and weather

sailwx.info

Track history (hours):
 
Tides and Currents Weather Stations Pressure Air Temp Water Temp Dewpoint Dewpoint Depression Visibility Wind Speed Wind Dir Waves Ship Positions

American Spirit

Owner: AMERICAN WORKBOATS INC, TERMINAL ISLAND, CA. More information available from US FCC via Universal Licensing System and Coast Guard Vessel Documentation Center.

Last reported at 2017-Mar-18 21:33 UTC. Time now 2017-Mar-25 01:58 UTC.
Position N 33°44' W 118°16'.

Length 3 m; draft 10 m.

Type: Tug. MMSI: 367022090.

Date/timePositionNaut miles runAvg speedWind from/ knotsBaromVisibWave heightAir tempDewpointWater temp
2017-Mar-18 21:33N 33°44' W 118°16'2 2.3
2017-Mar-18 20:33N 33°42' W 118°16'4 3.8
2017-Mar-18 19:32N 33°41' W 118°21'2 1.5
2017-Mar-18 18:33N 33°41' W 118°22'1 0.7
2017-Mar-18 17:33N 33°41' W 118°22'2 2.5
2017-Mar-18 16:33N 33°42' W 118°19'3 2.9
2017-Mar-18 15:33N 33°43' W 118°16'1 0.9
2017-Mar-18 14:33N 33°44' W 118°16'0 0.0
2017-Mar-18 13:32N 33°44' W 118°16'0 0.0
2017-Mar-18 12:33N 33°44' W 118°16'0 0.0
2017-Mar-18 11:33N 33°44' W 118°16'0 0.0
2017-Mar-18 10:33N 33°44' W 118°16'0 0.0
2017-Mar-18 09:22N 33°44' W 118°16'0 0.0
2017-Mar-18 08:33N 33°44' W 118°16'0 0.0
2017-Mar-18 07:33N 33°44' W 118°16'0 0.0
2017-Mar-18 06:14N 33°44' W 118°16'0 0.0
2017-Mar-18 05:31N 33°44' W 118°16'0 0.0
2017-Mar-18 04:33N 33°44' W 118°16'0 0.0
2017-Mar-18 03:33N 33°44' W 118°16'0 0.0
2017-Mar-18 02:33N 33°44' W 118°16'0 0.0
2017-Mar-18 01:33N 33°44' W 118°16'0 0.0
2017-Mar-18 00:33N 33°44' W 118°16'1 0.9
2017-Mar-17 23:34N 33°43' W 118°16'2 2.3
2017-Mar-17 22:33N 33°42' W 118°18'2 1.6
2017-Mar-17 21:33N 33°42' W 118°20'1 1.0
2017-Mar-17 20:17N 33°42' W 118°21'1 1.4
2017-Mar-17 19:33N 33°43' W 118°22'1 0.7
2017-Mar-17 18:33N 33°42' W 118°21'0 0.4
2017-Mar-17 17:33N 33°42' W 118°21'5 4.3
2017-Mar-17 16:25N 33°42' W 118°15'2 2.8
2017-Mar-17 15:33N 33°44' W 118°16'0 0.1
2017-Mar-17 14:33N 33°44' W 118°16'0 0.0
2017-Mar-17 13:32N 33°44' W 118°16'0 0.0
2017-Mar-17 12:33N 33°44' W 118°16'0 0.0
2017-Mar-17 11:28N 33°44' W 118°16'0 0.0
2017-Mar-17 10:33N 33°44' W 118°16'0 0.0
2017-Mar-17 09:33N 33°44' W 118°16'0 0.0
2017-Mar-17 08:20N 33°44' W 118°16'0 0.0
2017-Mar-17 07:34N 33°44' W 118°16'0 0.0
2017-Mar-17 06:33N 33°44' W 118°16'0 0.0
2017-Mar-17 05:33N 33°44' W 118°16'0 0.0
2017-Mar-17 04:28N 33°44' W 118°16'0 0.0
2017-Mar-17 03:17N 33°44' W 118°16'0 0.0
2017-Mar-17 02:33N 33°44' W 118°16'0 0.0
2017-Mar-17 01:33N 33°44' W 118°16'0 0.0
2017-Mar-17 00:33N 33°44' W 118°16'0 0.0
2017-Mar-16 23:33N 33°44' W 118°16'0 0.0
2017-Mar-16 22:33N 33°44' W 118°16'0 0.0
2017-Mar-16 21:34N 33°44' W 118°16'0 0.0
2017-Mar-16 20:32N 33°44' W 118°16'0 0.0
2017-Mar-16 19:33N 33°44' W 118°16'0 0.0
2017-Mar-16 18:33N 33°44' W 118°16'0 0.0
2017-Mar-16 17:14N 33°44' W 118°16'0 0.0
2017-Mar-16 16:33N 33°44' W 118°16'0 0.0
2017-Mar-16 15:31N 33°44' W 118°16'0 0.0
2017-Mar-16 14:32N 33°44' W 118°16'0 0.0
2017-Mar-16 13:33N 33°44' W 118°16'0 0.0
2017-Mar-16 12:33N 33°44' W 118°16'0 0.0
2017-Mar-16 11:33N 33°44' W 118°16'0 0.0
2017-Mar-16 10:33N 33°44' W 118°16'0 0.0
2017-Mar-16 09:33N 33°44' W 118°16'0 0.0
2017-Mar-16 08:33N 33°44' W 118°16'0 0.0
2017-Mar-16 07:33N 33°44' W 118°16'0 0.0
2017-Mar-16 06:33N 33°44' W 118°16'0 0.0
2017-Mar-16 05:33N 33°44' W 118°16'0 0.0
2017-Mar-16 04:33N 33°44' W 118°16'0 0.0
2017-Mar-16 03:33N 33°44' W 118°16'0 0.0
2017-Mar-16 02:33N 33°44' W 118°16'0 0.0
2017-Mar-16 01:33N 33°44' W 118°16'0 0.0
2017-Mar-16 00:31N 33°44' W 118°16'0 0.0
2017-Mar-15 23:25N 33°44' W 118°16'0 0.5
2017-Mar-15 22:33N 33°44' W 118°16'2 2.0
2017-Mar-15 21:32N 33°42' W 118°17'1 0.6
2017-Mar-15 19:32N 33°42' W 118°18'1 0.6
2017-Mar-15 18:33N 33°42' W 118°17'0 0.2
2017-Mar-15 17:33N 33°42' W 118°18'2 2.1
2017-Mar-15 16:33N 33°43' W 118°15'1 1.2
2017-Mar-15 15:33N 33°44' W 118°16'0 0.1
2017-Mar-15 14:33N 33°44' W 118°16'0 0.0
2017-Mar-14 21:31N 33°44' W 118°16'0 0.3
2017-Mar-14 20:33N 33°44' W 118°16'3 3.0
2017-Mar-14 19:33N 33°44' W 118°12'3 3.4
2017-Mar-14 18:33N 33°44' W 118°08'1 1.4
2017-Mar-14 17:33N 33°45' W 118°07'0 0.4
2017-Mar-14 16:34N 33°45' W 118°07'0 0.0
2017-Mar-14 15:34N 33°45' W 118°07'0 0.0
2017-Mar-14 14:33N 33°45' W 118°07'0 0.0
2017-Mar-14 13:33N 33°45' W 118°07'2 2.4
2017-Mar-14 12:33N 33°44' W 118°09'6 5.4
2017-Mar-14 11:32N 33°43' W 118°16'1 0.1
2017-Mar-14 01:33N 33°44' W 118°16'0 0.0
2017-Mar-14 00:13N 33°44' W 118°16'  
Track history (hours):
 
Tides and Currents Weather Stations Pressure Air Temp Water Temp Dewpoint Dewpoint Depression Visibility Wind Speed Wind Dir Waves Ship Positions

American Spirit

Owner: AMERICAN WORKBOATS INC, TERMINAL ISLAND, CA. More information available from US FCC via Universal Licensing System and Coast Guard Vessel Documentation Center.

Last reported at 2017-Mar-18 21:33 UTC. Time now 2017-Mar-25 01:58 UTC.
Position N 33°44' W 118°16'.

Length 3 m; draft 10 m.

Type: Tug. MMSI: 367022090.

Date/timePositionNaut miles runAvg speedWind from/ knotsBaromVisibWave heightAir tempDewpointWater temp
2017-Mar-18 21:33N 33°44' W 118°16'2 2.3
2017-Mar-18 20:33N 33°42' W 118°16'4 3.8
2017-Mar-18 19:32N 33°41' W 118°21'2 1.5
2017-Mar-18 18:33N 33°41' W 118°22'1 0.7
2017-Mar-18 17:33N 33°41' W 118°22'2 2.5
2017-Mar-18 16:33N 33°42' W 118°19'3 2.9
2017-Mar-18 15:33N 33°43' W 118°16'1 0.9
2017-Mar-18 14:33N 33°44' W 118°16'0 0.0
2017-Mar-18 13:32N 33°44' W 118°16'0 0.0
2017-Mar-18 12:33N 33°44' W 118°16'0 0.0
2017-Mar-18 11:33N 33°44' W 118°16'0 0.0
2017-Mar-18 10:33N 33°44' W 118°16'0 0.0
2017-Mar-18 09:22N 33°44' W 118°16'0 0.0
2017-Mar-18 08:33N 33°44' W 118°16'0 0.0
2017-Mar-18 07:33N 33°44' W 118°16'0 0.0
2017-Mar-18 06:14N 33°44' W 118°16'0 0.0
2017-Mar-18 05:31N 33°44' W 118°16'0 0.0
2017-Mar-18 04:33N 33°44' W 118°16'0 0.0
2017-Mar-18 03:33N 33°44' W 118°16'0 0.0
2017-Mar-18 02:33N 33°44' W 118°16'0 0.0
2017-Mar-18 01:33N 33°44' W 118°16'0 0.0
2017-Mar-18 00:33N 33°44' W 118°16'1 0.9
2017-Mar-17 23:34N 33°43' W 118°16'2 2.3
2017-Mar-17 22:33N 33°42' W 118°18'2 1.6
2017-Mar-17 21:33N 33°42' W 118°20'1 1.0
2017-Mar-17 20:17N 33°42' W 118°21'1 1.4
2017-Mar-17 19:33N 33°43' W 118°22'1 0.7
2017-Mar-17 18:33N 33°42' W 118°21'0 0.4
2017-Mar-17 17:33N 33°42' W 118°21'5 4.3
2017-Mar-17 16:25N 33°42' W 118°15'2 2.8
2017-Mar-17 15:33N 33°44' W 118°16'0 0.1
2017-Mar-17 14:33N 33°44' W 118°16'0 0.0
2017-Mar-17 13:32N 33°44' W 118°16'0 0.0
2017-Mar-17 12:33N 33°44' W 118°16'0 0.0
2017-Mar-17 11:28N 33°44' W 118°16'0 0.0
2017-Mar-17 10:33N 33°44' W 118°16'0 0.0
2017-Mar-17 09:33N 33°44' W 118°16'0 0.0
2017-Mar-17 08:20N 33°44' W 118°16'0 0.0
2017-Mar-17 07:34N 33°44' W 118°16'0 0.0
2017-Mar-17 06:33N 33°44' W 118°16'0 0.0
2017-Mar-17 05:33N 33°44' W 118°16'0 0.0
2017-Mar-17 04:28N 33°44' W 118°16'0 0.0
2017-Mar-17 03:17N 33°44' W 118°16'0 0.0
2017-Mar-17 02:33N 33°44' W 118°16'0 0.0
2017-Mar-17 01:33N 33°44' W 118°16'0 0.0
2017-Mar-17 00:33N 33°44' W 118°16'0 0.0
2017-Mar-16 23:33N 33°44' W 118°16'0 0.0
2017-Mar-16 22:33N 33°44' W 118°16'0 0.0
2017-Mar-16 21:34N 33°44' W 118°16'0 0.0
2017-Mar-16 20:32N 33°44' W 118°16'0 0.0
2017-Mar-16 19:33N 33°44' W 118°16'0 0.0
2017-Mar-16 18:33N 33°44' W 118°16'0 0.0
2017-Mar-16 17:14N 33°44' W 118°16'0 0.0
2017-Mar-16 16:33N 33°44' W 118°16'0 0.0
2017-Mar-16 15:31N 33°44' W 118°16'0 0.0
2017-Mar-16 14:32N 33°44' W 118°16'0 0.0
2017-Mar-16 13:33N 33°44' W 118°16'0 0.0
2017-Mar-16 12:33N 33°44' W 118°16'0 0.0
2017-Mar-16 11:33N 33°44' W 118°16'0 0.0
2017-Mar-16 10:33N 33°44' W 118°16'0 0.0
2017-Mar-16 09:33N 33°44' W 118°16'0 0.0
2017-Mar-16 08:33N 33°44' W 118°16'0 0.0
2017-Mar-16 07:33N 33°44' W 118°16'0 0.0
2017-Mar-16 06:33N 33°44' W 118°16'0 0.0
2017-Mar-16 05:33N 33°44' W 118°16'0 0.0
2017-Mar-16 04:33N 33°44' W 118°16'0 0.0
2017-Mar-16 03:33N 33°44' W 118°16'0 0.0
2017-Mar-16 02:33N 33°44' W 118°16'0 0.0
2017-Mar-16 01:33N 33°44' W 118°16'0 0.0
2017-Mar-16 00:31N 33°44' W 118°16'0 0.0
2017-Mar-15 23:25N 33°44' W 118°16'0 0.5
2017-Mar-15 22:33N 33°44' W 118°16'2 2.0
2017-Mar-15 21:32N 33°42' W 118°17'1 0.6
2017-Mar-15 19:32N 33°42' W 118°18'1 0.6
2017-Mar-15 18:33N 33°42' W 118°17'0 0.2
2017-Mar-15 17:33N 33°42' W 118°18'2 2.1
2017-Mar-15 16:33N 33°43' W 118°15'1 1.2
2017-Mar-15 15:33N 33°44' W 118°16'0 0.1
2017-Mar-15 14:33N 33°44' W 118°16'0 0.0
2017-Mar-14 21:31N 33°44' W 118°16'0 0.3
2017-Mar-14 20:33N 33°44' W 118°16'3 3.0
2017-Mar-14 19:33N 33°44' W 118°12'3 3.4
2017-Mar-14 18:33N 33°44' W 118°08'1 1.4
2017-Mar-14 17:33N 33°45' W 118°07'0 0.4
2017-Mar-14 16:34N 33°45' W 118°07'0 0.0
2017-Mar-14 15:34N 33°45' W 118°07'0 0.0
2017-Mar-14 14:33N 33°45' W 118°07'0 0.0
2017-Mar-14 13:33N 33°45' W 118°07'2 2.4
2017-Mar-14 12:33N 33°44' W 118°09'6 5.4
2017-Mar-14 11:32N 33°43' W 118°16'1 0.1
2017-Mar-14 01:33N 33°44' W 118°16'0 0.0
2017-Mar-14 00:13N 33°44' W 118°16'  

Dump ship's entire track history